Time;durP1;ratioP1;P1;durP2;ratioP2;P2;SDS_P1;SDS_P2;PMS_P1;PMS_P2;Temp;Humidity;BMP_temperature;BMP_pressure;BME280_temperature;BME280_humidity;BME280_pressure;Samples;Min_cycle;Max_cycle;Signal;HPM_P1;HPM_P2
2022/09/23 00:01:10;;;;;;;12.93;9.20;;;;;;;9.20;79.52;97614.65;1748658;82;25732;-78
2022/09/23 00:03:41;;;;;;;12.53;10.15;;;;;;;9.19;79.55;97612.98;1732930;82;26196;-77
2022/09/23 00:06:14;;;;;;;12.28;9.33;;;;;;;9.17;79.72;97611.03;1748614;82;25724;-78
2022/09/23 00:08:40;;;;;;;13.08;9.85;;;;;;;9.14;79.70;97609.55;1672285;85;25845;-78
2022/09/23 00:11:12;;;;;;;11.90;9.60;;;;;;;9.15;79.71;97609.04;1672302;85;27370;-78
2022/09/23 00:13:42;;;;;;;11.12;9.55;;;;;;;9.14;79.65;97611.41;1646454;87;25821;-78
2022/09/23 00:16:13;;;;;;;11.90;8.88;;;;;;;9.14;79.67;97610.06;1611188;88;25790;-78
2022/09/23 00:18:41;;;;;;;10.18;8.80;;;;;;;9.11;79.76;97606.41;1590380;90;25878;-77
2022/09/23 00:21:11;;;;;;;11.43;9.60;;;;;;;9.04;79.67;97607.73;1590201;90;26889;-78
2022/09/23 00:23:39;;;;;;;12.37;9.93;;;;;;;9.04;79.72;97609.08;1590410;90;27367;-78
2022/09/23 00:26:08;;;;;;;9.90;8.60;;;;;;;9.05;79.74;97605.88;1590411;90;25912;-78
2022/09/23 00:28:37;;;;;;;13.45;8.83;;;;;;;9.04;79.73;97594.27;1590267;88;25932;-78
2022/09/23 00:31:06;;;;;;;9.65;8.28;;;;;;;9.05;79.77;97599.14;1590317;90;25912;-77
2022/09/23 00:33:32;;;;;;;11.83;8.45;;;;;;;9.02;79.84;97591.77;1591323;89;25927;-78
2022/09/23 00:36:01;;;;;;;12.00;8.35;;;;;;;9.03;79.83;97593.44;1581660;90;27516;-78
2022/09/23 00:38:28;;;;;;;15.85;9.73;;;;;;;9.01;79.92;97590.09;1595232;89;26138;-77
2022/09/23 00:40:57;;;;;;;13.55;8.85;;;;;;;8.98;80.00;97593.17;1581564;90;25802;-78
2022/09/23 00:43:54;;;;;;;10.88;8.78;;;;;;;8.98;80.00;97582.92;1595238;89;25838;-77
2022/09/23 00:46:38;;;;;;;10.05;8.25;;;;;;;8.99;80.01;97584.08;1581805;88;25818;-78
2022/09/23 00:49:19;;;;;;;9.58;8.20;;;;;;;8.98;80.07;97586.45;1646081;87;28045;-77
2022/09/23 00:51:52;;;;;;;12.28;8.88;;;;;;;8.99;80.09;97587.28;1643046;87;25907;-77
2022/09/23 00:54:21;;;;;;;15.23;9.53;;;;;;;8.97;80.15;97586.13;1643628;86;25875;-78
2022/09/23 00:56:48;;;;;;;12.98;9.10;;;;;;;8.90;80.06;97593.34;1646295;86;25830;-77
2022/09/23 00:59:14;;;;;;;12.50;8.00;;;;;;;8.88;80.12;97587.31;1646312;87;25812;-77
2022/09/23 01:01:43;;;;;;;9.95;7.87;;;;;;;8.89;80.10;97586.80;1646000;86;27499;-78
2022/09/23 01:04:10;;;;;;;11.10;8.05;;;;;;;8.89;80.13;97588.98;1646157;87;25844;-78
2022/09/23 01:06:37;;;;;;;10.28;7.12;;;;;;;8.90;80.13;97585.27;1646255;87;26435;-77
2022/09/23 01:09:04;;;;;;;10.08;8.18;;;;;;;8.92;80.15;97584.55;1665864;86;25782;-77
2022/09/23 01:12:02;;;;;;;10.65;7.25;;;;;;;8.93;80.14;97578.14;1696748;81;25873;-78
2022/09/23 01:15:22;;;;;;;10.40;7.35;;;;;;;8.94;80.13;97571.70;1791503;80;28117;-77
2022/09/23 01:18:12;;;;;;;9.43;7.17;;;;;;;8.95;80.12;97575.23;1763715;81;25564;-77
2022/09/23 01:21:30;;;;;;;12.23;7.30;;;;;;;8.93;80.18;97574.11;1764003;80;25698;-78
2022/09/23 01:24:34;;;;;;;9.23;7.67;;;;;;;8.92;80.24;97569.75;1772486;80;25638;-77
2022/09/23 01:27:24;;;;;;;10.03;7.33;;;;;;;8.92;80.26;97572.44;1720403;83;25801;-77
2022/09/23 01:30:04;;;;;;;9.55;7.20;;;;;;;8.91;80.28;97568.08;1717755;83;27457;-77
2022/09/23 01:33:06;;;;;;;12.75;8.13;;;;;;;8.90;80.30;97569.11;1718697;83;25842;-77
2022/09/23 01:35:59;;;;;;;11.63;7.78;;;;;;;8.90;80.34;97571.80;1716890;83;25819;-77
2022/09/23 01:38:52;;;;;;;9.18;7.97;;;;;;;8.76;80.32;97547.16;1720479;82;25766;-77
2022/09/23 01:41:33;;;;;;;9.95;8.33;;;;;;;8.85;80.33;97568.02;1696368;84;25904;-77
2022/09/23 01:44:39;;;;;;;10.25;8.45;;;;;;;8.82;80.40;97558.47;1696384;84;28277;-77
2022/09/23 01:47:29;;;;;;;12.47;8.75;;;;;;;8.82;80.38;97563.85;1642546;87;25849;-78
2022/09/23 01:50:55;;;;;;;9.30;7.72;;;;;;;8.81;80.43;97564.08;1590497;90;25847;-77
2022/09/23 01:52:46;;;;;;;9.20;6.70;;;;;;;8.78;80.44;97569.33;1491365;96;25919;-77
2022/09/23 01:55:20;;;;;;;9.03;6.42;;;;;;;8.77;80.44;97558.25;1491645;96;25532;-77
2022/09/23 01:58:07;;;;;;;8.65;6.78;;;;;;;8.78;80.49;97569.84;1491775;96;27439;-77
2022/09/23 02:00:39;;;;;;;10.00;7.47;;;;;;;8.78;80.51;97565.30;1426870;100;25916;-77
2022/09/23 02:03:14;;;;;;;9.85;7.47;;;;;;;8.79;80.51;97572.86;1429304;99;26246;-78
2022/09/23 02:05:46;;;;;;;11.03;8.03;;;;;;;8.79;80.59;97566.96;1427116;100;26025;-77
2022/09/23 02:08:24;;;;;;;9.20;7.17;;;;;;;8.78;80.61;97569.84;1429410;99;26005;-77
2022/09/23 02:10:55;;;;;;;9.65;7.10;;;;;;;8.78;80.62;97572.02;1387517;102;27467;-76
2022/09/23 02:14:00;;;;;;;8.55;7.08;;;;;;;8.79;80.61;97566.96;1373266;104;25861;-76
2022/09/23 02:16:43;;;;;;;8.60;7.08;;;;;;;8.79;80.65;97565.61;1373197;104;25955;-76
2022/09/23 02:19:27;;;;;;;9.40;7.03;;;;;;;8.79;80.64;97568.31;1373226;104;25936;-76
2022/09/23 02:21:59;;;;;;;7.10;6.40;;;;;;;8.79;80.66;97572.34;1373066;104;25697;-77
2022/09/23 02:24:30;;;;;;;8.63;6.70;;;;;;;8.75;80.72;97572.41;1372706;104;28320;-77
2022/09/23 02:27:23;;;;;;;8.50;7.30;;;;;;;8.77;80.81;97574.39;1344883;106;26015;-76
2022/09/23 02:30:26;;;;;;;7.78;6.90;;;;;;;8.78;80.79;97567.98;1316809;108;26054;-77
2022/09/23 02:33:06;;;;;;;8.63;6.92;;;;;;;8.78;80.86;97572.02;1319007;108;26199;-76
2022/09/23 02:35:44;;;;;;;10.68;6.62;;;;;;;8.78;80.89;97567.98;1304754;109;26031;-76
2022/09/23 02:38:37;;;;;;;9.03;6.62;;;;;;;8.78;80.89;97562.60;1324742;106;27569;-76
2022/09/23 02:41:27;;;;;;;8.73;7.10;;;;;;;8.79;80.94;97564.27;1353292;105;31526;-76
2022/09/23 02:44:09;;;;;;;7.35;6.62;;;;;;;8.79;80.97;97562.92;1363399;105;25984;-76
2022/09/23 02:46:36;;;;;;;9.33;7.12;;;;;;;8.81;80.98;97564.91;1375597;102;25945;-76
2022/09/23 02:49:16;;;;;;;9.73;7.10;;;;;;;8.80;80.99;97568.63;1417343;98;25964;-76
2022/09/23 02:51:44;;;;;;;8.73;7.10;;;;;;;8.81;80.98;97564.91;1434585;99;27445;-77
2022/09/23 02:54:18;;;;;;;10.25;7.30;;;;;;;8.80;81.00;97564.59;1434513;99;25927;-76
2022/09/23 02:56:48;;;;;;;8.33;7.37;;;;;;;8.81;81.00;97570.30;1456481;98;25935;-76
2022/09/23 02:59:18;;;;;;;8.50;7.10;;;;;;;8.79;81.02;97573.69;1454974;98;25863;-77
2022/09/23 03:01:57;;;;;;;8.58;6.95;;;;;;;8.76;81.04;97570.04;1440583;99;26527;-76
2022/09/23 03:04:58;;;;;;;9.45;7.20;;;;;;;8.77;81.11;97566.83;1432972;100;27498;-76
2022/09/23 03:07:52;;;;;;;8.13;6.55;;;;;;;8.77;81.10;97570.36;1446049;98;25846;-77
2022/09/23 03:10:25;;;;;;;13.62;6.87;;;;;;;8.75;81.10;97564.33;1488663;96;25886;-76
2022/09/23 03:13:33;;;;;;;7.90;6.60;;;;;;;8.75;81.12;97568.88;1476328;97;26498;-77
2022/09/23 03:16:11;;;;;;;9.88;6.45;;;;;;;8.75;81.15;97564.84;1496838;95;26773;-76
2022/09/23 03:19:13;;;;;;;10.53;6.70;;;;;;;8.74;81.14;97555.11;1474328;97;27656;-77
2022/09/23 03:22:00;;;;;;;8.65;6.78;;;;;;;8.75;81.12;97550.88;1475419;97;25847;-76
2022/09/23 03:24:31;;;;;;;9.00;6.58;;;;;;;8.75;81.16;97546.00;1534902;92;25821;-76
2022/09/23 03:27:04;;;;;;;11.75;6.85;;;;;;;8.75;81.17;97548.19;1561822;88;26241;-76
2022/09/23 03:29:36;;;;;;;8.45;6.50;;;;;;;8.73;81.12;97550.23;1628251;88;25759;-76
2022/09/23 03:32:01;;;;;;;9.03;6.75;;;;;;;8.71;81.11;97546.91;1624763;88;27448;-76
2022/09/23 03:34:31;;;;;;;10.28;6.53;;;;;;;8.70;81.12;97556.00;1636031;86;26123;-76
2022/09/23 03:37:12;;;;;;;7.85;6.83;;;;;;;8.70;81.16;97548.44;1663829;86;25829;-76
2022/09/23 03:39:47;;;;;;;7.95;6.58;;;;;;;8.71;81.19;97550.94;1612191;88;26257;-76
2022/09/23 03:42:21;;;;;;;7.65;6.28;;;;;;;8.70;81.16;97547.93;1607834;89;25879;-76
2022/09/23 03:44:53;;;;;;;7.97;6.87;;;;;;;8.71;81.15;97542.03;1610587;89;27575;-76
2022/09/23 03:47:20;;;;;;;11.18;7.70;;;;;;;8.70;81.15;97542.55;1610719;89;25334;-76
2022/09/23 03:49:49;;;;;;;9.10;7.30;;;;;;;8.68;81.17;97531.17;1689230;84;25799;-76
2022/09/23 03:52:19;;;;;;;8.00;6.95;;;;;;;8.61;81.16;97541.88;1691962;84;25982;-76
2022/09/23 03:54:46;;;;;;;8.38;6.70;;;;;;;8.60;81.28;97544.23;1691842;84;25860;-76
2022/09/23 03:57:13;;;;;;;9.83;6.33;;;;;;;8.61;81.32;97542.38;1691771;84;28734;-76
2022/09/23 03:59:41;;;;;;;8.43;6.50;;;;;;;8.62;81.36;97544.05;1691881;84;25830;-76
2022/09/23 04:02:08;;;;;;;9.95;6.92;;;;;;;8.62;81.32;97541.36;1691528;84;25892;-76
2022/09/23 04:04:39;;;;;;;9.70;7.10;;;;;;;8.62;81.28;97541.36;1691887;84;25723;-76
2022/09/23 04:07:06;;;;;;;11.30;7.33;;;;;;;8.61;81.28;97532.97;1691990;84;25801;-76
2022/09/23 04:09:33;;;;;;;13.78;8.43;;;;;;;8.59;81.37;97545.27;1692057;84;27380;-76
2022/09/23 04:12:00;;;;;;;10.35;7.10;;;;;;;8.59;81.38;97541.23;1691852;84;25580;-77
2022/09/23 04:14:27;;;;;;;9.58;7.90;;;;;;;8.54;81.34;97538.83;1691871;84;26012;-76
2022/09/23 04:16:53;;;;;;;10.53;7.80;;;;;;;8.49;81.41;97540.73;1691836;84;25893;-76
2022/09/23 04:19:20;;;;;;;8.85;7.35;;;;;;;8.49;81.53;97539.40;1691939;84;25845;-76
2022/09/23 04:21:47;;;;;;;11.05;7.20;;;;;;;8.50;81.55;97540.23;1691823;84;27548;-76
2022/09/23 04:24:15;;;;;;;10.72;7.47;;;;;;;8.51;81.53;97538.69;1691880;84;25784;-76
2022/09/23 04:26:42;;;;;;;11.93;7.75;;;;;;;8.53;81.50;97541.19;1691779;84;26498;-76
2022/09/23 04:29:09;;;;;;;8.53;7.03;;;;;;;8.53;81.50;97537.99;1691774;84;25619;-76
2022/09/23 04:31:36;;;;;;;9.63;7.70;;;;;;;8.55;81.46;97543.18;1691847;84;25653;-77
2022/09/23 04:34:03;;;;;;;9.95;7.67;;;;;;;8.55;81.45;97543.18;1691463;84;27317;-77
2022/09/23 04:36:30;;;;;;;12.00;7.87;;;;;;;8.56;81.46;97540.81;1730568;80;25906;-76
2022/09/23 04:38:57;;;;;;;8.48;6.60;;;;;;;8.56;81.43;97544.34;1771910;81;25761;-77
2022/09/23 04:41:24;;;;;;;9.95;7.10;;;;;;;8.58;81.44;97546.80;1771898;81;25506;-76
2022/09/23 04:43:51;;;;;;;11.10;7.15;;;;;;;8.58;81.48;97540.08;1772070;80;25507;-76
2022/09/23 04:46:18;;;;;;;8.58;7.40;;;;;;;8.59;81.54;97549.30;1772155;80;27451;-77
2022/09/23 04:48:44;;;;;;;11.18;6.85;;;;;;;8.60;81.53;97545.59;1772048;80;25786;-76
2022/09/23 04:51:15;;;;;;;10.08;8.08;;;;;;;8.60;81.49;97544.23;1772147;80;25760;-77
2022/09/23 04:53:44;;;;;;;10.25;8.38;;;;;;;8.62;81.57;97546.73;1772240;80;26284;-76
2022/09/23 04:56:15;;;;;;;21.80;13.53;;;;;;;8.61;81.61;97544.56;1772443;80;25706;-75
2022/09/23 04:58:42;;;;;;;17.52;11.10;;;;;;;8.63;81.63;97542.52;1650529;86;27578;-77
2022/09/23 05:01:25;;;;;;;12.58;9.88;;;;;;;8.64;81.67;97547.38;1650273;86;25835;-76
2022/09/23 05:03:56;;;;;;;12.63;11.33;;;;;;;8.65;81.69;97546.36;1650331;86;25762;-76
2022/09/23 05:06:23;;;;;;;14.15;11.28;;;;;;;8.66;81.66;97546.17;1650586;86;25514;-77
2022/09/23 05:08:53;;;;;;;13.58;11.20;;;;;;;8.68;81.60;97547.32;1650347;86;26019;-77
2022/09/23 05:11:20;;;;;;;11.50;8.65;;;;;;;8.68;81.61;97543.28;1650544;86;27576;-76
2022/09/23 05:13:49;;;;;;;10.88;9.03;;;;;;;8.70;81.62;97545.75;1650550;86;25739;-76
2022/09/23 05:16:17;;;;;;;11.18;8.50;;;;;;;8.70;81.66;97550.62;1650675;86;25823;-76
2022/09/23 05:18:45;;;;;;;12.00;8.18;;;;;;;8.72;81.69;97561.19;1650573;86;25774;-76
2022/09/23 05:21:15;;;;;;;9.38;8.38;;;;;;;8.72;81.61;97555.81;1650434;86;26212;-76
2022/09/23 05:23:44;;;;;;;12.73;8.95;;;;;;;8.71;81.62;97550.94;1650385;86;28310;-76
2022/09/23 05:26:12;;;;;;;13.15;9.45;;;;;;;8.73;81.72;97556.97;1650359;86;25925;-76
2022/09/23 05:28:39;;;;;;;10.38;9.00;;;;;;;8.74;81.76;97555.94;1650640;86;26059;-76
2022/09/23 05:31:17;;;;;;;9.43;8.40;;;;;;;8.77;81.79;97555.55;1650433;86;25914;-76
2022/09/23 05:33:47;;;;;;;12.78;9.98;;;;;;;8.79;81.78;97552.67;1614170;88;26075;-76
2022/09/23 05:36:16;;;;;;;10.10;9.00;;;;;;;8.80;81.82;97551.13;1614023;87;27474;-76
2022/09/23 05:38:43;;;;;;;11.70;9.93;;;;;;;8.74;81.81;97550.56;1614332;88;26127;-76
2022/09/23 05:41:13;;;;;;;14.45;10.53;;;;;;;8.76;81.87;97561.96;1614167;88;25887;-74
2022/09/23 05:43:40;;;;;;;16.23;9.70;;;;;;;8.76;81.95;97556.58;1614549;88;25808;-76
2022/09/23 05:46:16;;;;;;;10.72;8.43;;;;;;;8.79;81.98;97560.23;1614400;88;25721;-76
2022/09/23 05:48:47;;;;;;;13.83;9.15;;;;;;;8.81;81.97;97560.88;1614322;88;27422;-75
2022/09/23 05:51:17;;;;;;;13.65;8.60;;;;;;;8.82;81.92;97561.16;1614129;88;25868;-76
2022/09/23 05:53:44;;;;;;;12.37;9.10;;;;;;;8.85;81.96;97559.43;1592348;90;25841;-75
2022/09/23 05:56:13;;;;;;;12.35;10.50;;;;;;;8.87;82.03;97564.11;1654171;85;25977;-76
2022/09/23 05:58:40;;;;;;;11.70;9.60;;;;;;;8.89;81.96;97563.41;1687754;85;25785;-76
2022/09/23 06:01:17;;;;;;;12.82;10.32;;;;;;;8.92;82.00;97563.53;1687376;85;27438;-76
2022/09/23 06:03:48;;;;;;;17.62;13.48;;;;;;;8.93;82.02;97564.69;1633238;87;25793;-77
2022/09/23 06:06:19;;;;;;;20.27;13.28;;;;;;;8.96;82.04;97564.78;1633263;87;25851;-76
2022/09/23 06:08:47;;;;;;;18.23;13.10;;;;;;;8.97;82.08;97561.89;1601105;88;26252;-76
2022/09/23 06:11:14;;;;;;;16.55;12.75;;;;;;;8.98;82.08;97560.87;1633430;87;25942;-77
2022/09/23 06:13:41;;;;;;;15.78;12.73;;;;;;;9.00;82.04;97571.45;1633157;87;27449;-77
2022/09/23 06:16:12;;;;;;;17.12;13.13;;;;;;;9.02;82.04;97563.50;1633350;87;25775;-76
2022/09/23 06:18:44;;;;;;;16.30;12.98;;;;;;;9.05;82.04;97564.13;1597976;88;25835;-77
2022/09/23 06:21:13;;;;;;;;;;;;;;;9.08;82.07;97565.06;1600547;89;25834;-77
2022/09/23 06:23:41;;;;;;;17.77;14.23;;;;;;;9.09;82.10;97562.17;1571899;91;26132;-76
2022/09/23 06:26:10;;;;;;;22.85;15.55;;;;;;;9.10;82.04;97565.70;1598194;89;28495;-77
2022/09/23 06:28:40;;;;;;;20.70;14.87;;;;;;;9.14;81.95;97568.33;1585662;89;26296;-75
2022/09/23 06:31:13;;;;;;;22.15;14.93;;;;;;;9.15;81.86;97567.30;1627842;87;25769;-76
2022/09/23 06:33:44;;;;;;;20.17;15.18;;;;;;;9.17;81.73;97567.94;1633470;87;25815;-76
2022/09/23 06:36:13;;;;;;;18.30;13.95;;;;;;;9.18;81.77;97568.22;1627159;87;25349;-75
2022/09/23 06:38:47;;;;;;;18.98;14.30;;;;;;;9.15;81.65;97566.78;1624324;88;28254;-76
2022/09/23 06:41:14;;;;;;;19.45;14.20;;;;;;;9.16;81.76;97575.70;1624321;88;25825;-75
2022/09/23 06:43:40;;;;;;;18.62;13.53;;;;;;;9.18;81.91;97577.13;1624275;88;25744;-76
2022/09/23 06:46:09;;;;;;;16.87;13.95;;;;;;;9.24;81.91;97576.36;1624152;88;26303;-75
2022/09/23 06:48:35;;;;;;;18.25;14.30;;;;;;;9.27;81.88;97569.75;1624440;88;25780;-76
2022/09/23 06:51:06;;;;;;;15.40;13.72;;;;;;;9.29;81.89;97575.77;1628679;87;27530;-76
2022/09/23 06:53:33;;;;;;;17.70;13.88;;;;;;;9.32;81.80;97567.27;1638951;87;25823;-76
2022/09/23 06:56:05;;;;;;;19.70;14.38;;;;;;;9.38;81.76;97573.22;1638835;87;25840;-75
2022/09/23 06:58:34;;;;;;;18.10;14.97;;;;;;;9.44;81.76;97577.80;1639514;87;25784;-77
2022/09/23 07:01:08;;;;;;;19.12;15.40;;;;;;;9.50;81.78;97579.70;1686744;84;25945;-76
2022/09/23 07:03:35;;;;;;;21.60;15.70;;;;;;;9.56;81.80;97573.50;1648614;87;28060;-76
2022/09/23 07:06:03;;;;;;;17.52;14.95;;;;;;;9.60;81.76;97584.20;1648794;87;25990;-76
2022/09/23 07:08:32;;;;;;;16.87;13.80;;;;;;;9.65;81.77;97576.36;1648524;87;25860;-77
2022/09/23 07:11:04;;;;;;;19.82;15.25;;;;;;;9.69;81.67;97572.72;1648910;87;25744;-76
2022/09/23 07:13:32;;;;;;;19.00;15.13;;;;;;;9.75;81.59;97579.50;1596543;89;25764;-76
2022/09/23 07:16:00;;;;;;;18.65;15.90;;;;;;;9.81;81.52;97579.71;1634603;86;27500;-76
2022/09/23 07:18:32;;;;;;;18.57;15.70;;;;;;;9.85;81.43;97579.63;1693627;84;25711;-76
2022/09/23 07:21:13;;;;;;;17.85;15.95;;;;;;;9.88;81.49;97577.37;1664433;86;34925;-76
2022/09/23 07:23:44;;;;;;;22.95;17.10;;;;;;;9.94;81.56;97582.45;1693508;84;27047;-77
2022/09/23 07:26:13;;;;;;;19.62;16.93;;;;;;;10.01;81.43;97580.62;1664414;86;25461;-75
2022/09/23 07:28:39;;;;;;;20.68;16.67;;;;;;;10.07;81.17;97587.89;1693634;84;27386;-76
2022/09/23 07:31:11;;;;;;;20.62;15.65;;;;;;;10.13;81.00;97581.69;1664268;86;25826;-77
2022/09/23 07:33:42;;;;;;;18.70;15.53;;;;;;;10.21;80.94;97581.52;1554903;90;25914;-75
2022/09/23 07:36:16;;;;;;;23.80;17.55;;;;;;;10.29;80.90;97578.63;1554760;91;25566;-76
2022/09/23 07:38:45;;;;;;;21.37;16.35;;;;;;;10.45;81.04;97582.28;1555107;90;25350;-76
2022/09/23 07:41:15;;;;;;;21.80;16.12;;;;;;;10.56;80.83;97581.36;1555196;90;28199;-76
2022/09/23 07:43:45;;;;;;;23.32;17.82;;;;;;;10.60;80.50;97592.06;1554781;92;25902;-76
2022/09/23 07:46:17;;;;;;;24.12;17.67;;;;;;;10.64;80.53;97585.19;1553844;92;25378;-77
2022/09/23 07:48:45;;;;;;;20.85;17.30;;;;;;;10.67;80.25;97587.48;1528607;92;26260;-76
2022/09/23 07:51:19;;;;;;;22.82;18.25;;;;;;;10.70;80.24;97588.42;1554567;91;26118;-76
2022/09/23 07:53:52;;;;;;;21.55;17.77;;;;;;;10.79;80.27;97586.66;1552589;91;28256;-77
2022/09/23 07:56:22;;;;;;;20.95;16.87;;;;;;;10.88;80.12;97585.08;1539021;91;26190;-76
2022/09/23 07:59:07;;;;;;;25.65;18.32;;;;;;;10.95;80.05;97585.41;1539285;91;25820;-76
2022/09/23 08:01:38;;;;;;;23.07;17.92;;;;;;;11.08;80.08;97588.09;1528668;92;25892;-76
2022/09/23 08:04:09;;;;;;;27.35;18.87;;;;;;;11.17;79.80;97588.17;1450723;98;26042;-76
2022/09/23 08:06:42;;;;;;;23.70;18.45;;;;;;;11.22;79.93;97584.85;1339740;107;27471;-75
2022/09/23 08:09:10;;;;;;;23.25;17.82;;;;;;;11.28;79.83;97585.34;1339623;107;25842;-75
2022/09/23 08:11:40;;;;;;;22.95;17.25;;;;;;;11.36;79.34;97593.73;1370470;104;27001;-76
2022/09/23 08:14:07;;;;;;;20.90;16.77;;;;;;;11.44;79.32;97586.77;1371536;103;25950;-76
2022/09/23 08:16:34;;;;;;;23.25;17.15;;;;;;;11.51;78.86;97588.92;1378097;104;25997;-76
2022/09/23 08:19:01;;;;;;;22.45;16.77;;;;;;;11.50;78.60;97591.31;1378261;104;27441;-76
2022/09/23 08:21:28;;;;;;;21.48;16.90;;;;;;;11.51;78.31;97593.80;1377959;104;26055;-76
2022/09/23 08:23:55;;;;;;;23.35;17.40;;;;;;;11.52;78.20;97593.28;1378142;104;25863;-75
2022/09/23 08:26:22;;;;;;;22.10;17.12;;;;;;;11.51;78.25;97591.63;1378163;104;26251;-75
2022/09/23 08:28:53;;;;;;;24.55;17.45;;;;;;;11.54;78.17;97595.26;1378183;104;25990;-76
2022/09/23 08:31:18;;;;;;;21.87;17.17;;;;;;;11.57;77.86;97592.14;1393998;102;28281;-75
2022/09/23 08:33:44;;;;;;;21.45;16.95;;;;;;;11.56;77.94;97591.83;1411796;101;25872;-76
2022/09/23 08:36:11;;;;;;;21.07;15.85;;;;;;;11.62;77.93;97593.66;1415144;99;25998;-76
2022/09/23 08:38:37;;;;;;;21.33;16.20;;;;;;;11.72;77.79;97591.33;1439504;99;26419;-76
2022/09/23 08:41:12;;;;;;;20.92;15.38;;;;;;;11.82;77.63;97582.30;1439393;99;25816;-76
2022/09/23 08:43:44;;;;;;;22.10;15.40;;;;;;;11.94;77.50;97578.91;1441348;98;27443;-76
2022/09/23 08:46:11;;;;;;;19.50;15.27;;;;;;;11.99;77.02;97574.50;1441866;98;25823;-76
2022/09/23 08:48:43;;;;;;;18.45;14.50;;;;;;;12.15;76.71;97571.30;1439335;99;25907;-75
2022/09/23 08:51:34;;;;;;;18.85;13.98;;;;;;;12.53;76.94;97577.20;1437601;99;25959;-76
2022/09/23 08:54:01;;;;;;;16.90;13.80;;;;;;;12.94;76.67;97567.16;1464715;97;25837;-77
2022/09/23 08:56:29;;;;;;;15.23;12.58;;;;;;;13.45;76.06;97568.23;1470625;97;27428;-77
2022/09/23 08:59:13;;;;;;;14.38;11.97;;;;;;;13.88;75.29;97566.80;1477813;96;25901;-76
2022/09/23 09:01:54;;;;;;;14.53;11.65;;;;;;;14.30;74.78;97562.77;1502503;94;26159;-75
2022/09/23 09:04:38;;;;;;;10.30;8.40;;;;;;;14.68;73.97;97565.16;1672638;84;26880;-79
2022/09/23 09:07:18;;;;;;;9.78;7.92;;;;;;;15.06;73.13;97565.55;1697057;84;25917;-75
2022/09/23 09:10:05;;;;;;;9.00;7.55;;;;;;;15.36;71.17;97561.33;1648989;85;27427;-77
2022/09/23 09:12:46;;;;;;;9.65;7.15;;;;;;;15.56;71.20;97556.92;1628214;88;25745;-76
2022/09/23 09:15:25;;;;;;;9.93;6.60;;;;;;;15.99;70.50;97558.34;1617415;88;25360;-79
2022/09/23 09:18:20;;;;;;;9.13;7.17;;;;;;;16.05;69.60;97558.22;1646348;87;25801;-76
2022/09/23 09:21:04;;;;;;;10.28;7.97;;;;;;;15.84;68.45;97550.69;1619731;88;25993;-76
2022/09/23 09:23:33;;;;;;;;;;;;;;;15.33;67.76;97550.12;1617847;88;27485;-75
2022/09/23 09:26:02;;;;;;;9.18;8.03;;;;;;;15.06;67.50;97545.17;1646450;87;25827;-76
2022/09/23 09:29:07;;;;;;;8.53;7.62;;;;;;;14.88;68.15;97552.59;1601336;88;25806;-75
2022/09/23 09:31:46;;;;;;;10.72;6.03;;;;;;;14.63;68.20;97553.61;1651904;85;26565;-76
2022/09/23 09:34:29;;;;;;;6.78;5.83;;;;;;;14.50;68.44;97548.38;1652110;85;25799;-76
2022/09/23 09:37:00;;;;;;;;;;;;;;;14.34;67.73;97547.69;1663881;86;27423;-76
2022/09/23 09:39:27;;;;;;;7.35;5.58;;;;;;;14.05;66.96;97546.09;1666600;86;25500;-79
2022/09/23 09:41:59;;;;;;;5.85;5.08;;;;;;;13.96;68.38;97545.30;1622574;88;25772;-76
2022/09/23 09:44:27;;;;;;;6.70;5.67;;;;;;;14.14;68.47;97540.33;1663615;86;26192;-76
2022/09/23 09:47:10;;;;;;;6.95;5.72;;;;;;;14.48;68.52;97541.03;1678273;85;25905;-77
2022/09/23 09:50:00;;;;;;;;;;;;;;;14.94;68.09;97540.79;1626117;87;27480;-77
2022/09/23 09:52:28;;;;;;;6.15;4.12;;;;;;;15.40;66.48;97528.52;1604825;89;25811;-78
2022/09/23 09:54:58;;;;;;;6.97;4.30;;;;;;;15.78;66.56;97520.36;1578279;90;25856;-77
2022/09/23 09:57:45;;;;;;;6.85;4.40;;;;;;;16.00;65.82;97528.69;1553821;92;27298;-77
2022/09/23 10:00:29;;;;;;;5.50;4.97;;;;;;;16.14;65.17;97525.97;1580500;90;26683;-79
2022/09/23 10:03:15;;;;;;;6.37;4.30;;;;;;;16.23;64.86;97527.75;1580865;90;27402;-78
2022/09/23 10:05:50;;;;;;;5.70;4.47;;;;;;;16.49;63.99;97523.06;1580763;90;25506;-77
2022/09/23 10:08:35;;;;;;;5.60;5.05;;;;;;;16.76;63.61;97527.37;1613946;88;25876;-77
2022/09/23 10:11:17;;;;;;;5.70;4.60;;;;;;;16.52;61.93;97521.21;1627489;88;25784;-78
2022/09/23 10:14:18;;;;;;;5.10;3.27;;;;;;;15.99;61.89;97521.05;1626256;88;32959;-78
2022/09/23 10:16:47;;;;;;;5.67;3.62;;;;;;;15.63;62.38;97523.59;1627399;88;28040;-79
2022/09/23 10:19:27;;;;;;;6.15;3.92;;;;;;;15.39;62.54;97523.31;1605632;88;25774;-79
2022/09/23 10:21:59;;;;;;;5.22;3.45;;;;;;;15.25;62.57;97521.38;1627443;88;25758;-77
2022/09/23 10:24:31;;;;;;;4.23;3.80;;;;;;;15.02;62.30;97518.15;1630694;86;25511;-77
2022/09/23 10:27:06;;;;;;;7.80;4.40;;;;;;;14.83;62.80;97514.44;1641309;86;25792;-77
2022/09/23 10:29:39;;;;;;;4.10;3.40;;;;;;;14.80;63.02;97516.25;1621169;88;28273;-77
2022/09/23 10:32:35;;;;;;;5.30;4.80;;;;;;;14.83;62.58;97511.72;1620875;88;25489;-79
2022/09/23 10:35:13;;;;;;;4.87;4.25;;;;;;;14.98;63.12;97507.97;1614908;88;25842;-79
2022/09/23 10:37:47;;;;;;;5.22;4.00;;;;;;;15.19;63.14;97500.59;1615426;87;25801;-77
2022/09/23 10:49:44;;;;;;;3.25;2.95;;;;;;;16.33;61.41;97494.71;1572419;91;25837;-78
2022/09/23 10:52:46;;;;;;;3.95;3.55;;;;;;;16.31;60.31;97500.94;1543579;92;25842;-79
2022/09/23 10:55:36;;;;;;;4.58;4.17;;;;;;;16.22;60.33;97495.61;1547394;88;25953;-79
2022/09/23 10:58:28;;;;;;;4.72;4.28;;;;;;;16.16;59.83;97488.43;1511794;94;28335;-77
2022/09/23 11:01:08;;;;;;;4.95;4.20;;;;;;;16.04;59.68;97485.77;1521802;94;25805;-78
2022/09/23 11:04:00;;;;;;;5.70;4.58;;;;;;;15.97;59.90;97487.80;1521661;94;25869;-79
2022/09/23 11:06:45;;;;;;;4.90;4.15;;;;;;;15.93;59.70;97487.18;1520572;94;25596;-79
2022/09/23 11:09:39;;;;;;;5.22;4.55;;;;;;;15.82;59.53;97494.30;1515404;94;25853;-77
2022/09/23 11:12:30;;;;;;;5.45;4.70;;;;;;;15.65;59.35;97487.98;1519368;93;27516;-77
2022/09/23 11:15:31;;;;;;;6.47;4.83;;;;;;;15.47;59.40;97482.96;1519994;94;25866;-76
2022/09/23 11:18:37;;;;;;;5.85;4.50;;;;;;;15.36;59.42;97479.73;1515740;94;25867;-77
2022/09/23 11:21:32;;;;;;;5.70;4.60;;;;;;;15.33;59.74;97474.80;1520956;94;25616;-78
2022/09/23 11:24:50;;;;;;;5.92;5.08;;;;;;;15.37;59.70;97467.80;1520621;94;25764;-78
2022/09/23 11:27:43;;;;;;;8.68;4.45;;;;;;;15.38;59.67;97469.45;1520471;94;27508;-79
2022/09/23 11:30:18;;;;;;;5.58;4.78;;;;;;;15.48;59.82;97473.73;1518588;94;25869;-78
2022/09/23 11:33:15;;;;;;;8.55;5.47;;;;;;;15.66;60.12;97470.59;1507933;94;25931;-80
2022/09/23 11:36:01;;;;;;;6.75;3.22;;;;;;;15.82;59.73;97460.27;1489282;96;26268;-80
2022/09/23 11:38:42;;;;;;;3.80;3.08;;;;;;;15.95;58.40;97457.80;1493720;96;25863;-81
2022/09/23 11:41:32;;;;;;;7.45;3.47;;;;;;;16.08;57.31;97451.52;1492220;96;27535;-79
2022/09/23 11:44:04;;;;;;;5.25;4.00;;;;;;;16.16;57.92;97453.03;1480184;96;26050;-80
2022/09/23 11:46:51;;;;;;;4.45;3.47;;;;;;;16.08;56.92;97454.77;1514027;94;25796;-79
2022/09/23 11:49:32;;;;;;;6.08;3.95;;;;;;;15.94;57.02;97447.44;1515053;94;26255;-80
2022/09/23 11:55:00;;;;;;;5.15;4.05;;;;;;;16.00;57.29;97447.84;1472868;96;27682;-79
2022/09/23 11:57:47;;;;;;;4.00;3.30;;;;;;;15.91;57.27;97442.50;1486554;96;25370;-81
2022/09/23 12:00:20;;;;;;;6.17;3.80;;;;;;;15.80;57.15;97439.30;1365492;104;25988;-79
2022/09/23 12:02:55;;;;;;;4.17;3.25;;;;;;;15.74;56.92;97441.63;1380954;102;26003;-79
2022/09/23 12:05:36;;;;;;;3.87;3.15;;;;;;;15.65;56.55;97434.92;1381559;102;26630;-79
2022/09/23 12:08:28;;;;;;;5.03;3.22;;;;;;;15.48;56.66;97434.83;1355314;105;28300;-80
2022/09/23 12:11:26;;;;;;;4.30;3.45;;;;;;;15.34;56.98;97441.60;1354359;105;26210;-80
2022/09/23 12:14:23;;;;;;;4.78;2.85;;;;;;;15.08;56.68;97429.39;1356306;104;25964;-79
2022/09/23 12:17:22;;;;;;;3.08;2.77;;;;;;;14.89;56.95;97429.23;1357815;104;25983;-78
2022/09/23 12:20:07;;;;;;;3.35;2.58;;;;;;;14.85;56.91;97427.53;1357002;104;25843;-80
2022/09/23 12:23:02;;;;;;;3.55;3.20;;;;;;;14.82;56.89;97431.25;1355596;105;27456;-78
2022/09/23 12:25:45;;;;;;;4.85;3.67;;;;;;;14.61;57.04;97434.84;1368476;104;26035;-79